createdAt,value
2019-05-28T00:00:33.605Z,0.00
2019-05-28T00:01:32.564Z,0.00
2019-05-28T00:02:32.543Z,0.00
2019-05-28T00:03:32.501Z,0.00
2019-05-28T00:04:32.490Z,0.00
2019-05-28T00:05:32.451Z,0.00
2019-05-28T00:06:33.427Z,0.00
2019-05-28T00:07:32.383Z,0.00
2019-05-28T00:08:32.361Z,0.00
2019-05-28T00:09:32.351Z,0.00
2019-05-28T00:10:32.310Z,0.00
2019-05-28T00:11:32.347Z,0.00
2019-05-28T00:12:33.289Z,0.00
2019-05-28T00:13:32.227Z,0.00
2019-05-28T00:14:32.241Z,0.00
2019-05-28T00:15:32.305Z,0.00
2019-05-28T00:16:32.165Z,0.00
2019-05-28T00:17:32.201Z,0.00
2019-05-28T00:18:33.107Z,0.00
2019-05-28T00:19:32.093Z,0.00
2019-05-28T00:20:32.083Z,0.00
2019-05-28T00:21:32.011Z,0.00
2019-05-28T00:22:32.256Z,0.00
2019-05-28T00:23:32.290Z,0.00
2019-05-28T00:24:32.950Z,0.00
2019-05-28T00:25:31.948Z,0.00
2019-05-28T00:26:31.900Z,0.00
2019-05-28T00:27:31.882Z,0.00
2019-05-28T00:28:31.859Z,0.00
2019-05-28T00:29:31.803Z,0.00
2019-05-28T00:30:32.806Z,0.00
2019-05-28T00:31:31.798Z,0.00
2019-05-28T00:32:31.754Z,0.00
2019-05-28T00:33:31.706Z,0.00
2019-05-28T00:34:31.697Z,0.00
2019-05-28T00:35:31.714Z,0.00
2019-05-28T00:36:32.600Z,0.00
2019-05-28T00:37:33.675Z,0.00
2019-05-28T00:38:31.572Z,0.00
2019-05-28T00:39:32.560Z,0.00
2019-05-28T00:40:31.531Z,0.00
2019-05-28T00:53:14.988Z,0.00
2019-05-28T00:54:12.298Z,0.00
2019-05-28T00:55:12.280Z,0.00
2019-05-28T00:56:12.239Z,0.00
2019-05-28T00:57:12.213Z,0.00
2019-05-28T00:58:12.191Z,0.00
2019-05-28T00:59:12.167Z,0.00
2019-05-28T01:00:12.126Z,0.00
2019-05-28T01:01:13.242Z,0.00
2019-05-28T01:02:12.135Z,0.00
2019-05-28T01:03:12.057Z,0.00
2019-05-28T01:04:12.037Z,0.00
2019-05-28T01:05:11.998Z,0.00
2019-05-28T01:06:11.978Z,0.00
2019-05-28T01:07:11.939Z,0.00
2019-05-28T01:08:12.359Z,0.00
2019-05-28T01:09:11.897Z,0.00
2019-05-28T01:10:11.882Z,0.00
2019-05-28T01:11:11.840Z,0.00
2019-05-28T01:12:11.821Z,0.00
2019-05-28T01:13:11.786Z,0.00
2019-05-28T01:14:11.758Z,0.00
2019-05-28T01:15:11.738Z,0.00
2019-05-28T01:16:11.707Z,0.00
2019-05-28T01:17:11.675Z,0.00
2019-05-28T01:18:11.646Z,0.00
2019-05-28T01:19:11.622Z,0.00
2019-05-28T01:20:11.631Z,0.00
2019-05-28T01:21:11.573Z,0.00
2019-05-28T01:22:11.643Z,0.00
2019-05-28T01:23:11.509Z,0.00
2019-05-28T01:24:11.493Z,0.00
2019-05-28T01:25:11.457Z,0.00
2019-05-28T01:26:11.473Z,0.00
2019-05-28T01:27:11.410Z,0.00
2019-05-28T01:28:11.379Z,0.00
2019-05-28T01:29:11.353Z,0.00
2019-05-28T01:30:11.330Z,0.00
2019-05-28T01:31:11.307Z,0.00
2019-05-28T01:32:11.276Z,0.00
2019-05-28T01:33:11.310Z,0.00
2019-05-28T01:34:11.222Z,0.00
2019-05-28T01:35:11.191Z,0.00
2019-05-28T01:36:11.183Z,0.00
2019-05-28T01:37:11.135Z,0.00
2019-05-28T01:38:11.109Z,0.00
2019-05-28T01:39:11.088Z,0.00
2019-05-28T01:40:11.068Z,0.00
2019-05-28T01:41:11.105Z,0.00
2019-05-28T01:42:11.013Z,0.00
2019-05-28T01:43:10.974Z,0.00
2019-05-28T01:44:10.948Z,0.00
2019-05-28T01:45:10.941Z,0.00
2019-05-28T01:46:10.899Z,0.00
2019-05-28T01:47:10.873Z,0.00
2019-05-28T01:48:10.934Z,0.00
2019-05-28T01:49:10.812Z,0.00
2019-05-28T01:50:10.819Z,0.00
2019-05-28T01:51:10.765Z,0.00
2019-05-28T01:52:10.737Z,0.00
2019-05-28T01:53:10.723Z,0.00
2019-05-28T01:54:10.681Z,0.00
2019-05-28T01:55:10.674Z,0.00
2019-05-28T01:56:10.630Z,0.00
2019-05-28T01:57:10.600Z,0.00
2019-05-28T01:58:10.575Z,0.00
2019-05-28T01:59:10.569Z,0.00
2019-05-28T02:00:10.524Z,0.00
2019-05-28T02:01:13.196Z,0.00
2019-05-28T02:02:10.466Z,0.00
2019-05-28T02:03:10.529Z,0.00
2019-05-28T02:04:10.419Z,0.00
2019-05-28T02:05:10.514Z,0.00
2019-05-28T02:06:10.360Z,0.00
2019-05-28T02:07:10.421Z,0.00
2019-05-28T02:08:10.299Z,0.00
2019-05-28T02:09:10.350Z,0.00
2019-05-28T02:10:10.251Z,0.00
2019-05-28T02:11:12.298Z,0.00
2019-05-28T02:12:10.195Z,0.00
2019-05-28T02:13:10.261Z,0.00
2019-05-28T02:14:10.204Z,0.00
2019-05-28T02:15:10.181Z,0.00
2019-05-28T02:16:10.088Z,0.00
2019-05-28T02:17:10.082Z,0.00
2019-05-28T02:18:10.045Z,0.00
2019-05-28T02:19:10.098Z,0.00
2019-05-28T02:20:09.980Z,0.00
2019-05-28T02:21:10.016Z,0.00
2019-05-28T02:22:09.929Z,0.00
2019-05-28T02:23:09.923Z,0.00
2019-05-28T02:24:09.874Z,0.00
2019-05-28T02:25:09.942Z,0.00
2019-05-28T02:26:09.821Z,0.00
2019-05-28T02:27:09.850Z,0.00
2019-05-28T02:28:09.762Z,0.00
2019-05-28T02:29:09.766Z,0.00
2019-05-28T02:30:09.727Z,0.00
2019-05-28T02:31:09.770Z,0.00
2019-05-28T02:32:09.654Z,0.00
2019-05-28T02:33:09.682Z,0.00
2019-05-28T02:34:09.605Z,0.00
2019-05-28T02:35:09.587Z,0.00
2019-05-28T02:36:09.546Z,0.00
2019-05-28T02:37:09.610Z,0.00
2019-05-28T02:38:09.499Z,0.00
2019-05-28T02:39:09.547Z,0.00
2019-05-28T02:40:09.445Z,0.00
2019-05-28T02:41:09.435Z,0.00
2019-05-28T02:42:09.389Z,0.00
2019-05-28T02:43:09.448Z,0.00
2019-05-28T02:44:09.327Z,0.00
2019-05-28T02:45:09.356Z,0.00
2019-05-28T02:46:09.286Z,0.00
2019-05-28T02:47:09.261Z,0.00
2019-05-28T02:48:09.236Z,0.00
2019-05-28T02:49:09.298Z,0.00
2019-05-28T02:50:09.168Z,0.00
2019-05-28T02:51:09.195Z,0.00
2019-05-28T02:52:09.115Z,0.00
2019-05-28T02:53:09.198Z,0.00
2019-05-28T02:54:09.056Z,0.00
2019-05-28T02:55:09.128Z,0.00
2019-05-28T02:56:09.001Z,0.00
2019-05-28T02:57:09.020Z,0.00
2019-05-28T02:58:08.964Z,0.00
2019-05-28T02:59:09.049Z,0.00
2019-05-28T03:00:08.901Z,0.00
2019-05-28T03:01:08.996Z,0.00
2019-05-28T03:02:08.856Z,0.00
2019-05-28T03:03:08.818Z,0.00
2019-05-28T03:04:08.948Z,0.00
2019-05-28T03:05:08.771Z,0.00
2019-05-28T03:06:08.737Z,0.00
2019-05-28T03:07:08.746Z,0.00
2019-05-28T03:08:08.687Z,0.00
2019-05-28T03:09:08.739Z,0.00
2019-05-28T03:10:08.628Z,0.00
2019-05-28T03:11:08.729Z,0.00
2019-05-28T03:12:08.584Z,0.00
2019-05-28T03:13:08.688Z,0.00
2019-05-28T03:14:08.520Z,0.00
2019-05-28T03:15:08.490Z,0.00
2019-05-28T03:16:08.479Z,0.00
2019-05-28T03:17:08.436Z,0.00
2019-05-28T03:18:08.472Z,0.00
2019-05-28T03:19:08.528Z,0.00
2019-05-28T03:20:08.367Z,0.00
2019-05-28T03:21:08.419Z,0.00
2019-05-28T03:22:08.307Z,0.00
2019-05-28T03:23:08.288Z,0.00
2019-05-28T03:24:08.252Z,0.00
2019-05-28T03:25:08.220Z,0.00
2019-05-28T03:26:08.233Z,0.00
2019-05-28T03:27:08.170Z,0.00
2019-05-28T03:58:24.192Z,5.63
2019-05-28T03:59:22.421Z,11.25
2019-05-28T04:00:22.393Z,11.25
2019-05-28T04:01:22.473Z,11.25
2019-05-28T04:02:23.831Z,11.25
2019-05-28T04:03:22.315Z,11.25
2019-05-28T04:04:22.286Z,11.25
2019-05-28T04:05:22.254Z,11.25
2019-05-28T04:06:22.230Z,11.25
2019-05-28T04:07:22.203Z,11.25
2019-05-28T04:08:22.175Z,11.25
2019-05-28T04:09:22.228Z,11.25
2019-05-28T04:10:22.122Z,11.25
2019-05-28T04:11:22.089Z,11.25
2019-05-28T04:12:22.144Z,11.25
2019-05-28T04:13:22.045Z,11.25
2019-05-28T04:14:22.048Z,11.25
2019-05-28T04:15:21.980Z,11.25
2019-05-28T04:16:21.956Z,5.63
2019-05-28T04:17:21.930Z,5.63
2019-05-28T04:18:21.909Z,5.63
2019-05-28T04:19:21.875Z,5.63
2019-05-28T04:20:21.904Z,5.63
2019-05-28T04:21:21.825Z,5.63
2019-05-28T04:22:21.807Z,5.63
2019-05-28T04:23:21.767Z,5.63
2019-05-28T04:24:21.753Z,5.63
2019-05-28T04:25:21.722Z,5.63
2019-05-28T04:26:21.695Z,5.63
2019-05-28T04:27:21.661Z,5.63
2019-05-28T04:28:21.631Z,5.63
2019-05-28T04:29:21.674Z,5.63
2019-05-28T04:30:21.576Z,5.63
2019-05-28T04:31:21.569Z,5.63
2019-05-28T04:32:21.527Z,5.63
2019-05-28T04:33:21.583Z,5.63
2019-05-28T04:34:21.485Z,5.63
2019-05-28T04:35:21.485Z,5.63
2019-05-28T04:36:21.481Z,11.25
2019-05-28T04:37:21.489Z,11.25
2019-05-28T04:38:21.371Z,11.25
2019-05-28T04:39:22.425Z,11.25
2019-05-28T04:40:21.306Z,11.25
2019-05-28T04:41:21.319Z,11.25
2019-05-28T04:42:21.248Z,11.25
2019-05-28T04:43:21.333Z,11.25
2019-05-28T04:44:21.200Z,11.25
2019-05-28T04:45:21.253Z,11.25
2019-05-28T04:46:21.139Z,11.25
2019-05-28T04:47:21.218Z,11.25
2019-05-28T04:48:21.086Z,11.25
2019-05-28T04:49:21.179Z,11.25
2019-05-28T04:50:21.032Z,11.25
2019-05-28T04:51:21.074Z,16.88
2019-05-28T04:52:21.034Z,16.88
2019-05-28T04:53:21.102Z,16.88
2019-05-28T04:54:20.917Z,16.88
2019-05-28T04:55:21.007Z,16.88
2019-05-28T04:56:20.881Z,16.88
2019-05-28T04:57:20.925Z,16.88
2019-05-28T04:58:20.819Z,16.88
2019-05-28T04:59:20.929Z,16.88
2019-05-28T05:00:20.767Z,16.88
2019-05-28T05:01:20.804Z,16.88
2019-05-28T05:02:20.704Z,16.88
2019-05-28T05:03:20.720Z,16.88
2019-05-28T05:04:20.664Z,16.88
2019-05-28T05:05:20.766Z,16.88
2019-05-28T05:06:20.605Z,16.88
2019-05-28T05:07:22.621Z,16.88
2019-05-28T05:08:20.540Z,16.88
2019-05-28T05:09:20.585Z,16.88
2019-05-28T05:10:20.520Z,16.88
2019-05-28T05:11:20.595Z,16.88
2019-05-28T05:12:20.428Z,16.88
2019-05-28T05:13:22.476Z,16.88
2019-05-28T05:14:20.376Z,22.50
2019-05-28T05:15:20.421Z,22.50
2019-05-28T05:16:20.312Z,28.13
2019-05-28T05:17:28.334Z,33.75
2019-05-28T05:18:20.276Z,39.38
2019-05-28T05:19:20.338Z,39.38
2019-05-28T05:20:20.224Z,45.00
2019-05-28T05:21:20.266Z,50.63
2019-05-28T05:22:20.154Z,56.25
2019-05-28T05:23:20.284Z,56.25
2019-05-28T05:24:20.097Z,56.25
2019-05-28T05:25:20.195Z,61.88
2019-05-28T05:26:20.047Z,73.13
2019-05-28T05:28:20.187Z,84.38
2019-05-28T05:29:20.245Z,90.00
2019-05-28T05:30:19.946Z,101.25
2019-05-28T05:31:20.009Z,106.88
2019-05-28T05:32:19.873Z,106.88
2019-05-28T05:33:20.760Z,112.50
2019-05-28T05:34:19.821Z,118.13
2019-05-28T05:35:19.951Z,118.13
2019-05-28T05:36:19.776Z,118.13
2019-05-28T05:37:20.839Z,118.13
2019-05-28T05:38:19.714Z,118.13
2019-05-28T05:39:19.695Z,123.75
2019-05-28T05:40:19.739Z,123.75
2019-05-28T05:41:19.627Z,123.75
2019-05-28T05:42:20.666Z,123.75
2019-05-28T05:43:19.589Z,118.13
2019-05-28T05:44:19.654Z,112.50
2019-05-28T05:45:19.518Z,106.88
2019-05-28T05:46:20.578Z,106.88
2019-05-28T05:47:19.464Z,112.50
2019-05-28T05:48:21.539Z,106.88
2019-05-28T05:49:19.445Z,106.88
2019-05-28T05:50:19.493Z,106.88
2019-05-28T05:51:19.359Z,106.88
2019-05-28T05:52:21.465Z,106.88
2019-05-28T05:53:19.310Z,112.50
2019-05-28T05:54:26.296Z,112.50
2019-05-28T05:55:19.248Z,118.13
2019-05-28T05:56:19.221Z,129.38
2019-05-28T05:57:19.212Z,135.00
2019-05-28T05:58:19.178Z,146.25
2019-05-28T05:59:19.228Z,151.88
2019-05-28T06:00:19.113Z,157.50
2019-05-28T06:01:19.194Z,146.25
2019-05-28T06:02:19.074Z,129.38
2019-05-28T06:03:38.593Z,118.13
2019-05-28T06:04:19.000Z,112.50
2019-05-28T06:05:19.127Z,106.88
2019-05-28T06:06:18.943Z,106.88
2019-05-28T06:07:19.092Z,112.50
2019-05-28T06:08:18.899Z,112.50
2019-05-28T06:09:18.879Z,118.13
2019-05-28T06:10:18.848Z,118.13
2019-05-28T06:11:18.808Z,123.75
2019-05-28T06:12:18.784Z,129.38
2019-05-28T06:13:18.767Z,140.63
2019-05-28T06:14:18.893Z,140.63
2019-05-28T06:15:18.697Z,151.88
2019-05-28T06:16:18.795Z,163.13
2019-05-28T06:17:18.646Z,168.75
2019-05-28T06:18:18.730Z,168.75
2019-05-28T06:19:18.587Z,168.75
2019-05-28T06:20:18.646Z,163.13
2019-05-28T06:21:19.128Z,157.50
2019-05-28T06:22:18.624Z,157.50
2019-05-28T06:23:18.474Z,157.50
2019-05-28T06:24:18.469Z,163.13
2019-05-28T06:25:18.459Z,163.13
2019-05-28T06:26:18.546Z,163.13
2019-05-28T06:27:19.466Z,157.50
2019-05-28T06:28:19.499Z,157.50
2019-05-28T06:29:18.317Z,151.88
2019-05-28T06:30:18.368Z,140.63
2019-05-28T06:31:18.255Z,123.75
2019-05-28T06:32:18.381Z,112.50
2019-05-28T06:33:18.199Z,101.25
2019-05-28T06:34:18.175Z,95.63
2019-05-28T06:35:18.152Z,95.63
2019-05-28T06:36:18.146Z,90.00
2019-05-28T06:37:18.106Z,84.38
2019-05-28T06:38:18.072Z,78.75
2019-05-28T06:39:18.041Z,73.13
2019-05-28T06:40:18.066Z,73.13
2019-05-28T06:41:18.011Z,73.13
2019-05-28T06:42:17.950Z,78.75
2019-05-28T06:43:17.946Z,78.75
2019-05-28T06:44:17.980Z,78.75
2019-05-28T06:45:17.884Z,78.75
2019-05-28T06:46:17.908Z,78.75
2019-05-28T06:47:17.863Z,78.75
2019-05-28T06:48:17.904Z,78.75
2019-05-28T06:49:17.761Z,73.13
2019-05-28T06:50:17.733Z,73.13
2019-05-28T06:51:17.727Z,73.13
2019-05-28T06:52:17.690Z,73.13
2019-05-28T06:53:17.646Z,73.13
2019-05-28T06:54:17.625Z,78.75
2019-05-28T06:55:17.649Z,78.75
2019-05-28T06:56:17.604Z,84.38
2019-05-28T06:57:22.720Z,84.38
2019-05-28T06:58:17.522Z,90.00
2019-05-28T06:59:17.584Z,101.25
2019-05-28T07:00:17.460Z,112.50
2019-05-28T07:01:17.537Z,112.50
2019-05-28T07:02:17.409Z,118.13
2019-05-28T07:03:17.390Z,123.75
2019-05-28T07:04:31.723Z,129.38
2019-05-28T07:05:17.318Z,146.25
2019-05-28T07:06:17.417Z,151.88
2019-05-28T07:07:17.334Z,157.50
2019-05-28T07:08:17.242Z,174.38
2019-05-28T07:09:17.212Z,185.63
2019-05-28T07:10:17.184Z,191.25
2019-05-28T07:11:17.195Z,196.88
2019-05-28T07:12:19.202Z,202.50
2019-05-28T07:13:17.106Z,208.13
2019-05-28T07:14:18.178Z,213.75
2019-05-28T07:15:17.062Z,219.38
2019-05-28T07:16:17.067Z,213.75
2019-05-28T07:17:16.996Z,213.75
2019-05-28T07:18:16.982Z,213.75
2019-05-28T07:19:24.684Z,213.75
2019-05-28T07:20:16.960Z,219.38
2019-05-28T07:21:16.902Z,225.00
2019-05-28T07:22:16.856Z,230.63
2019-05-28T07:23:16.831Z,230.63
2019-05-28T07:24:16.800Z,230.63
2019-05-28T07:25:16.772Z,241.88
2019-05-28T07:26:16.750Z,236.25
2019-05-28T07:27:16.721Z,225.00
2019-05-28T07:28:16.744Z,225.00
2019-05-28T07:29:16.662Z,219.38
2019-05-28T07:30:16.744Z,208.13
2019-05-28T07:31:16.617Z,208.13
2019-05-28T07:32:16.685Z,196.88
2019-05-28T07:33:16.563Z,180.00
2019-05-28T07:34:29.599Z,163.13
2019-05-28T07:35:16.657Z,151.88
2019-05-28T07:36:16.466Z,151.88
2019-05-28T07:37:16.580Z,151.88
2019-05-28T07:38:16.457Z,157.50
2019-05-28T07:39:16.581Z,146.25
2019-05-28T07:40:30.322Z,135.00
2019-05-28T07:41:16.344Z,129.38
2019-05-28T07:42:31.735Z,123.75
2019-05-28T07:43:16.275Z,118.13
2019-05-28T07:44:16.323Z,118.13
2019-05-28T07:45:16.245Z,118.13
2019-05-28T07:46:16.190Z,118.13
2019-05-28T07:47:16.337Z,123.75
2019-05-28T07:48:16.184Z,129.38
2019-05-28T07:49:16.259Z,135.00
2019-05-28T07:50:16.084Z,140.63
2019-05-28T07:51:16.253Z,146.25
2019-05-28T07:52:16.034Z,157.50
2019-05-28T07:53:16.243Z,163.13
2019-05-28T07:54:15.977Z,174.38
2019-05-28T07:55:15.947Z,174.38
2019-05-28T07:56:16.099Z,180.00
2019-05-28T07:57:15.893Z,185.63
2019-05-28T07:58:16.001Z,208.13
2019-05-28T07:59:15.848Z,219.38
2019-05-28T08:00:16.015Z,202.50
2019-05-28T08:01:15.789Z,180.00
2019-05-28T08:02:16.941Z,146.25
2019-05-28T08:03:15.730Z,118.13
2019-05-28T08:04:15.740Z,101.25
2019-05-28T08:05:17.224Z,95.63
2019-05-28T08:06:15.644Z,95.63
2019-05-28T08:07:15.658Z,84.38
2019-05-28T08:08:15.595Z,73.13
2019-05-28T08:09:15.664Z,61.88
2019-05-28T08:10:15.535Z,45.00
2019-05-28T08:11:15.579Z,39.38
2019-05-28T08:12:15.482Z,33.75
2019-05-28T08:13:15.490Z,28.13
2019-05-28T08:14:15.441Z,33.75
2019-05-28T08:15:15.497Z,39.38
2019-05-28T08:16:18.798Z,39.38
2019-05-28T08:17:15.413Z,39.38
2019-05-28T08:18:15.316Z,39.38
2019-05-28T08:19:15.325Z,39.38
2019-05-28T08:20:18.301Z,33.75
2019-05-28T08:21:15.338Z,39.38
2019-05-28T08:22:15.200Z,45.00
2019-05-28T08:23:15.248Z,45.00
2019-05-28T08:24:15.175Z,45.00
2019-05-28T08:25:33.745Z,50.63
2019-05-28T08:26:15.104Z,56.25
2019-05-28T08:27:16.111Z,61.88
2019-05-28T08:28:19.917Z,61.88
2019-05-28T08:29:15.143Z,61.88
2019-05-28T08:30:14.984Z,61.88
2019-05-28T08:31:20.147Z,67.50
2019-05-28T08:32:14.934Z,67.50
2019-05-28T08:33:15.014Z,67.50
2019-05-28T08:34:19.179Z,67.50
2019-05-28T08:35:14.917Z,67.50
2019-05-28T08:36:14.818Z,73.13
2019-05-28T08:37:16.880Z,73.13
2019-05-28T08:38:14.773Z,67.50
2019-05-28T08:39:14.838Z,73.13
2019-05-28T08:40:14.716Z,73.13
2019-05-28T08:41:14.753Z,73.13
2019-05-28T08:42:14.657Z,73.13
2019-05-28T08:43:14.683Z,73.13
2019-05-28T08:44:14.608Z,78.75
2019-05-28T08:45:14.681Z,78.75
2019-05-28T08:46:14.575Z,78.75
2019-05-28T08:47:14.596Z,78.75
2019-05-28T08:48:14.488Z,78.75
2019-05-28T08:49:14.500Z,73.13
2019-05-28T08:50:14.435Z,73.13
2019-05-28T08:51:14.518Z,84.38
2019-05-28T08:52:14.378Z,84.38
2019-05-28T08:53:15.452Z,84.38
2019-05-28T08:54:14.323Z,78.75
2019-05-28T08:55:14.346Z,73.13
2019-05-28T08:56:14.283Z,73.13
2019-05-28T08:57:21.829Z,67.50
2019-05-28T08:58:14.221Z,61.88
2019-05-28T08:59:15.285Z,56.25
2019-05-28T09:00:14.166Z,50.63
2019-05-28T09:01:36.191Z,56.25
2019-05-28T09:02:27.236Z,61.88
2019-05-28T09:03:14.067Z,78.75
2019-05-28T09:04:16.138Z,84.38
2019-05-28T09:05:26.027Z,95.63
2019-05-28T09:06:14.100Z,112.50
2019-05-28T09:07:13.974Z,118.13
2019-05-28T09:08:14.019Z,123.75
2019-05-28T09:09:13.910Z,118.13
2019-05-28T09:10:13.892Z,101.25
2019-05-28T09:11:14.198Z,84.38
2019-05-28T09:12:13.840Z,73.13
2019-05-28T09:13:13.799Z,73.13
2019-05-28T09:14:13.849Z,67.50
2019-05-28T09:15:13.752Z,67.50
2019-05-28T09:16:13.732Z,73.13
2019-05-28T09:17:13.679Z,78.75
2019-05-28T09:18:13.667Z,84.38
2019-05-28T09:19:13.643Z,101.25
2019-05-28T09:20:13.607Z,112.50
2019-05-28T09:21:13.703Z,129.38
2019-05-28T09:22:25.041Z,140.63
2019-05-28T09:23:13.528Z,135.00
2019-05-28T09:24:13.539Z,140.63
2019-05-28T09:25:14.545Z,146.25
2019-05-28T09:26:13.476Z,151.88
2019-05-28T09:27:13.573Z,157.50
2019-05-28T09:28:28.236Z,157.50
2019-05-28T09:29:13.357Z,157.50
2019-05-28T09:30:13.326Z,151.88
2019-05-28T09:31:13.307Z,140.63
2019-05-28T09:32:13.273Z,129.38
2019-05-28T09:33:14.333Z,118.13
2019-05-28T09:34:13.227Z,106.88
2019-05-28T09:35:13.196Z,101.25
2019-05-28T09:36:13.177Z,101.25
2019-05-28T09:37:13.130Z,95.63
2019-05-28T09:38:13.245Z,101.25
2019-05-28T09:39:13.105Z,106.88
2019-05-28T09:40:13.147Z,112.50
2019-05-28T09:41:13.030Z,106.88
2019-05-28T09:42:13.011Z,101.25
2019-05-28T09:43:13.091Z,101.25
2019-05-28T09:44:12.951Z,101.25
2019-05-28T09:45:22.644Z,95.63
2019-05-28T09:46:12.893Z,95.63
2019-05-28T09:47:12.999Z,95.63
2019-05-28T09:48:13.070Z,106.88
2019-05-28T09:49:12.923Z,123.75
2019-05-28T09:50:29.225Z,157.50
2019-05-28T09:51:12.745Z,180.00
2019-05-28T09:52:12.726Z,180.00
2019-05-28T09:53:12.693Z,185.63
2019-05-28T09:54:12.838Z,196.88
2019-05-28T09:55:12.642Z,208.13
2019-05-28T09:56:12.613Z,219.38
2019-05-28T09:57:12.575Z,225.00
2019-05-28T09:58:12.555Z,241.88
2019-05-28T09:59:12.523Z,275.63
2019-05-28T10:00:15.072Z,309.38
2019-05-28T10:01:12.538Z,337.50
2019-05-28T10:02:12.446Z,337.50
2019-05-28T10:03:12.434Z,348.75
2019-05-28T10:04:12.501Z,348.75
2019-05-28T10:05:12.360Z,360.00
2019-05-28T10:06:16.156Z,348.75
2019-05-28T10:07:12.411Z,365.63
2019-05-28T10:08:12.276Z,371.25
2019-05-28T10:09:12.244Z,337.50
2019-05-28T10:10:12.286Z,320.63
2019-05-28T10:11:12.352Z,298.13
2019-05-28T10:12:12.176Z,298.13
2019-05-28T10:13:12.260Z,298.13
2019-05-28T10:14:12.332Z,303.75
2019-05-28T10:15:12.090Z,298.13
2019-05-28T10:16:12.055Z,281.25
2019-05-28T10:17:12.185Z,258.75
2019-05-28T10:18:12.004Z,253.13
2019-05-28T10:19:11.972Z,241.88
2019-05-28T10:20:11.946Z,247.50
2019-05-28T10:21:18.152Z,247.50
2019-05-28T10:22:11.886Z,247.50
2019-05-28T10:23:11.856Z,253.13
2019-05-28T10:24:11.858Z,258.75
2019-05-28T10:25:11.908Z,264.38
2019-05-28T10:26:11.794Z,264.38
2019-05-28T10:27:11.756Z,247.50
2019-05-28T10:28:11.727Z,236.25
2019-05-28T10:29:11.857Z,236.25
2019-05-28T10:30:11.662Z,241.88
2019-05-28T10:31:11.826Z,264.38
2019-05-28T10:32:11.608Z,303.75
2019-05-28T10:33:11.793Z,382.50
2019-05-28T10:34:11.556Z,444.38
2019-05-28T10:35:11.714Z,461.25
2019-05-28T10:36:11.580Z,438.75
2019-05-28T10:37:11.617Z,421.88
2019-05-28T10:38:15.878Z,416.25
2019-05-28T10:39:11.625Z,416.25
2019-05-28T10:40:11.386Z,405.00
2019-05-28T10:41:11.548Z,365.63
2019-05-28T10:42:11.332Z,376.88
2019-05-28T10:43:11.444Z,416.25
2019-05-28T10:44:11.286Z,416.25
2019-05-28T10:45:11.454Z,399.38
2019-05-28T10:46:11.266Z,382.50
2019-05-28T10:47:11.373Z,315.00
2019-05-28T10:48:11.167Z,315.00
2019-05-28T10:49:11.178Z,337.50
2019-05-28T10:50:11.106Z,354.38
2019-05-28T10:51:11.267Z,331.88
2019-05-28T10:52:11.099Z,326.25
2019-05-28T10:53:11.023Z,292.50
2019-05-28T10:54:10.988Z,315.00
2019-05-28T10:55:10.968Z,286.88
2019-05-28T10:56:10.963Z,275.63
2019-05-28T10:57:10.912Z,309.38
2019-05-28T10:58:10.879Z,326.25
2019-05-28T10:59:10.945Z,348.75
2019-05-28T11:00:10.832Z,388.13
2019-05-28T11:01:10.859Z,382.50
2019-05-28T11:02:10.789Z,360.00
2019-05-28T11:03:10.857Z,331.88
2019-05-28T11:04:10.719Z,326.25
2019-05-28T11:05:11.891Z,315.00
2019-05-28T11:06:10.661Z,292.50
2019-05-28T11:07:10.777Z,281.25
2019-05-28T11:08:10.598Z,303.75
2019-05-28T11:09:11.714Z,331.88
2019-05-28T11:10:23.088Z,326.25
2019-05-28T11:11:10.746Z,326.25
2019-05-28T11:12:10.502Z,331.88
2019-05-28T11:13:10.621Z,354.38
2019-05-28T11:14:10.432Z,382.50
2019-05-28T11:15:10.661Z,393.75
2019-05-28T11:16:10.377Z,360.00
2019-05-28T11:17:10.536Z,343.13
2019-05-28T11:18:10.326Z,331.88
2019-05-28T11:19:10.359Z,309.38
2019-05-28T11:20:10.271Z,309.38
2019-05-28T11:21:10.331Z,303.75
2019-05-28T11:22:10.211Z,309.38
2019-05-28T11:23:11.296Z,320.63
2019-05-28T11:24:10.151Z,326.25
2019-05-28T11:25:10.201Z,326.25
2019-05-28T11:26:10.144Z,315.00
2019-05-28T11:27:10.107Z,309.38
2019-05-28T11:28:10.036Z,281.25
2019-05-28T11:29:10.118Z,275.63
2019-05-28T11:30:09.986Z,303.75
2019-05-28T11:31:10.024Z,281.25
2019-05-28T11:32:09.931Z,281.25
2019-05-28T11:33:09.945Z,315.00
2019-05-28T11:34:09.878Z,348.75
2019-05-28T11:35:10.977Z,354.38
2019-05-28T11:36:09.816Z,343.13
2019-05-28T11:37:10.345Z,320.63
2019-05-28T11:38:09.757Z,292.50
2019-05-28T11:39:09.770Z,275.63
2019-05-28T11:40:09.733Z,241.88
2019-05-28T11:41:09.785Z,213.75
2019-05-28T11:42:09.706Z,191.25
2019-05-28T11:43:09.693Z,163.13
2019-05-28T11:44:09.610Z,151.88
2019-05-28T11:45:09.670Z,151.88
2019-05-28T11:46:09.561Z,151.88
2019-05-28T11:47:09.607Z,151.88
2019-05-28T11:48:09.511Z,140.63
2019-05-28T11:49:10.443Z,135.00
2019-05-28T11:50:09.450Z,118.13
2019-05-28T11:51:09.465Z,112.50
2019-05-28T11:52:09.435Z,101.25
2019-05-28T11:53:09.467Z,106.88
2019-05-28T11:54:09.332Z,118.13
2019-05-28T11:55:09.425Z,151.88
2019-05-28T11:56:09.265Z,185.63
2019-05-28T11:57:09.294Z,208.13
2019-05-28T11:58:09.205Z,230.63
2019-05-28T11:59:09.308Z,241.88
2019-05-28T12:00:09.163Z,241.88
2019-05-28T12:01:09.221Z,230.63
2019-05-28T12:02:09.117Z,236.25
2019-05-28T12:03:09.193Z,241.88
2019-05-28T12:04:09.051Z,236.25
2019-05-28T12:05:09.141Z,225.00
2019-05-28T12:06:09.004Z,202.50
2019-05-28T12:07:22.913Z,174.38
2019-05-28T12:08:08.987Z,151.88
2019-05-28T12:09:08.966Z,140.63
2019-05-28T12:10:08.946Z,140.63
2019-05-28T12:11:08.991Z,151.88
2019-05-28T12:12:08.850Z,163.13
2019-05-28T12:13:10.921Z,163.13
2019-05-28T12:14:08.836Z,163.13
2019-05-28T12:15:08.842Z,151.88
2019-05-28T12:16:08.810Z,135.00
2019-05-28T12:17:08.705Z,140.63
2019-05-28T12:18:08.803Z,146.25
2019-05-28T12:19:08.702Z,151.88
2019-05-28T12:20:08.639Z,157.50
2019-05-28T12:21:08.609Z,157.50
2019-05-28T12:22:08.576Z,163.13
2019-05-28T12:23:15.381Z,168.75
2019-05-28T12:24:08.509Z,168.75
2019-05-28T12:25:08.476Z,168.75
2019-05-28T12:26:08.518Z,157.50
2019-05-28T12:27:08.406Z,151.88
2019-05-28T12:28:08.433Z,151.88
2019-05-28T12:29:08.680Z,163.13
2019-05-28T12:30:08.340Z,180.00
2019-05-28T12:31:08.373Z,208.13
2019-05-28T12:32:09.235Z,241.88
2019-05-28T12:33:08.335Z,270.00
2019-05-28T12:34:10.329Z,281.25
2019-05-28T12:35:23.833Z,298.13
2019-05-28T12:36:08.409Z,298.13
2019-05-28T12:37:08.209Z,303.75
2019-05-28T12:38:08.384Z,309.38
2019-05-28T12:39:09.283Z,309.38
2019-05-28T12:40:08.079Z,298.13
2019-05-28T12:41:08.094Z,292.50
2019-05-28T12:42:08.063Z,275.63
2019-05-28T12:43:08.113Z,264.38
2019-05-28T12:44:07.992Z,253.13
2019-05-28T12:45:09.749Z,241.88
2019-05-28T12:46:07.890Z,230.63
2019-05-28T12:47:07.959Z,213.75
2019-05-28T12:48:12.108Z,196.88
2019-05-28T12:49:07.831Z,185.63
2019-05-28T12:50:18.875Z,180.00
2019-05-28T12:51:07.753Z,168.75
2019-05-28T12:52:07.745Z,157.50
2019-05-28T12:53:07.689Z,146.25
2019-05-28T12:54:07.674Z,135.00
2019-05-28T12:55:07.632Z,123.75
2019-05-28T12:56:07.690Z,123.75
2019-05-28T12:57:07.592Z,118.13
2019-05-28T12:58:07.602Z,118.13
2019-05-28T12:59:07.529Z,112.50
2019-05-28T13:00:07.516Z,112.50
2019-05-28T13:01:07.525Z,106.88
2019-05-28T13:02:08.588Z,101.25
2019-05-28T13:03:07.478Z,101.25
2019-05-28T13:04:07.488Z,101.25
2019-05-28T13:05:07.364Z,106.88
2019-05-28T13:06:07.345Z,112.50
2019-05-28T13:07:07.299Z,118.13
2019-05-28T13:08:10.158Z,123.75
2019-05-28T13:09:07.264Z,129.38
2019-05-28T13:10:07.286Z,140.63
2019-05-28T13:11:07.198Z,151.88
2019-05-28T13:12:08.202Z,168.75
2019-05-28T13:13:07.125Z,185.63
2019-05-28T13:14:08.216Z,191.25
2019-05-28T13:15:07.074Z,202.50
2019-05-28T13:16:07.121Z,213.75
2019-05-28T13:17:07.025Z,225.00
2019-05-28T13:18:14.901Z,236.25
2019-05-28T13:19:06.957Z,241.88
2019-05-28T13:20:08.008Z,241.88
2019-05-28T13:21:06.908Z,241.88
2019-05-28T13:22:06.936Z,247.50
2019-05-28T13:23:06.848Z,253.13
2019-05-28T13:24:06.844Z,264.38
2019-05-28T13:25:06.803Z,275.63
2019-05-28T13:26:14.737Z,286.88
2019-05-28T13:27:17.548Z,298.13
2019-05-28T13:28:07.801Z,315.00
2019-05-28T13:29:06.683Z,326.25
2019-05-28T13:30:07.755Z,337.50